Time;durP1;ratioP1;P1;durP2;ratioP2;P2;SDS_P1;SDS_P2;PMS_P1;PMS_P2;Temp;Humidity;BMP_temperature;BMP_pressure;BME280_temperature;BME280_humidity;BME280_pressure;Samples;Min_cycle;Max_cycle;Signal;HPM_P1;HPM_P2
2021/12/06 00:00:28;;;;;;;18.83;15.40;;;7.40;99.90;;;;;;2613113;54;20428;-74
2021/12/06 00:02:57;;;;;;;20.53;17.00;;;7.40;99.90;;;;;;2614230;54;20403;-74
2021/12/06 00:05:25;;;;;;;18.83;16.97;;;7.50;99.90;;;;;;2613940;54;20443;-78
2021/12/06 00:07:51;;;;;;;20.40;16.93;;;7.20;99.90;;;;;;2613695;54;20946;-79
2021/12/06 00:10:17;;;;;;;21.43;19.13;;;7.20;99.90;;;;;;2614925;47;20424;-73
2021/12/06 00:12:43;;;;;;;24.00;19.60;;;7.30;99.90;;;;;;2613975;54;20431;-75
2021/12/06 00:15:10;;;;;;;27.67;20.50;;;7.40;99.90;;;;;;2615162;39;20847;-77
2021/12/06 00:17:37;;;;;;;20.70;18.17;;;7.10;99.90;;;;;;2615180;54;20411;-75
2021/12/06 00:20:05;;;;;;;21.10;18.77;;;7.00;99.90;;;;;;2614913;47;20423;-76
2021/12/06 00:22:32;;;;;;;20.77;18.10;;;6.70;99.90;;;;;;2614002;47;20495;-76
2021/12/06 00:24:58;;;;;;;20.33;17.40;;;6.40;99.90;;;;;;2613127;54;20975;-76
2021/12/06 00:27:25;;;;;;;23.23;18.30;;;6.40;99.90;;;;;;2614009;39;20823;-75
2021/12/06 00:29:51;;;;;;;21.33;17.20;;;6.40;99.90;;;;;;2613587;39;20758;-74
2021/12/06 00:32:17;;;;;;;30.93;19.47;;;6.00;99.90;;;;;;2611014;54;20416;-75
2021/12/06 00:34:43;;;;;;;19.07;16.57;;;5.80;99.90;;;;;;2614858;54;20472;-77
2021/12/06 00:39:47;;;;;;;17.90;15.83;;;5.20;99.90;;;;;;2613126;47;20503;-75
2021/12/06 00:42:14;;;;;;;21.63;15.20;;;4.90;99.90;;;;;;2614815;47;20431;-74
2021/12/06 00:44:40;;;;;;;19.17;15.73;;;5.10;99.90;;;;;;2611129;54;20484;-75
2021/12/06 00:47:06;;;;;;;18.37;16.40;;;5.00;99.90;;;;;;2614713;54;20400;-76
2021/12/06 00:49:32;;;;;;;18.40;16.40;;;4.90;99.90;;;;;;2612957;47;20278;-75
2021/12/06 00:51:58;;;;;;;18.83;16.23;;;5.00;99.90;;;;;;2614710;54;20167;-77
2021/12/06 00:54:24;;;;;;;23.77;16.30;;;5.00;99.90;;;;;;2612253;54;20416;-78
2021/12/06 00:56:50;;;;;;;18.40;16.50;;;4.60;99.90;;;;;;2614713;39;20866;-75
2021/12/06 00:59:16;;;;;;;20.37;16.57;;;4.80;99.90;;;;;;2613583;47;20179;-76
2021/12/06 01:01:43;;;;;;;19.03;15.80;;;4.90;99.90;;;;;;2612008;47;20423;-76
2021/12/06 01:04:09;;;;;;;19.80;16.23;;;4.90;99.90;;;;;;2613899;47;20913;-75
2021/12/06 01:06:35;;;;;;;17.50;15.40;;;4.90;99.90;;;;;;2615086;39;20823;-75
2021/12/06 01:09:04;;;;;;;16.13;14.50;;;4.80;99.90;;;;;;2615271;39;20306;-76
2021/12/06 01:11:30;;;;;;;24.13;17.60;;;4.70;99.90;;;;;;2612820;54;20419;-76
2021/12/06 01:13:56;;;;;;;17.50;14.37;;;4.40;99.90;;;;;;2615406;54;20410;-74
2021/12/06 01:16:22;;;;;;;18.07;15.50;;;4.50;99.90;;;;;;2614140;47;20202;-76
2021/12/06 01:18:49;;;;;;;17.80;15.17;;;4.20;99.90;;;;;;2614063;46;20579;-75
2021/12/06 01:21:22;;;;;;;17.00;15.23;;;3.90;99.90;;;;;;2614011;47;20424;-76
2021/12/06 01:23:58;;;;;;;19.20;15.27;;;4.10;99.90;;;;;;2614427;47;20406;-75
2021/12/06 01:32:03;;;;;;;17.47;15.63;;;4.10;99.90;;;;;;2612242;39;20833;-77
2021/12/06 01:40:00;;;;;;;22.80;18.13;;;4.00;99.90;;;;;;2614475;47;20411;-75
2021/12/06 01:42:26;;;;;;;22.10;15.50;;;3.90;99.90;;;;;;2611588;47;20460;-77
2021/12/06 01:44:56;;;;;;;19.90;15.37;;;3.70;99.90;;;;;;2613035;54;20392;-75
2021/12/06 01:47:29;;;;;;;18.63;14.60;;;3.60;99.90;;;;;;2613849;47;20258;-76
2021/12/06 01:49:59;;;;;;;15.87;14.17;;;3.60;99.90;;;;;;2613380;51;20515;-76
2021/12/06 01:52:36;;;;;;;20.73;15.03;;;3.60;99.90;;;;;;2613100;47;20535;-76
2021/12/06 01:55:07;;;;;;;16.30;14.13;;;3.30;99.90;;;;;;2614030;54;21163;-76
2021/12/06 01:57:34;;;;;;;17.00;15.03;;;3.10;99.90;;;;;;2613731;47;20434;-75
2021/12/06 02:00:03;;;;;;;16.10;13.77;;;2.90;99.90;;;;;;2613884;47;20863;-75
2021/12/06 02:02:30;;;;;;;16.30;13.60;;;3.00;99.90;;;;;;2611492;39;20815;-75
2021/12/06 02:04:58;;;;;;;15.10;13.50;;;3.20;99.90;;;;;;2612415;51;20432;-77
2021/12/06 02:07:27;;;;;;;15.97;14.47;;;3.60;99.90;;;;;;2612685;47;20439;-76
2021/12/06 02:09:57;;;;;;;15.27;13.70;;;3.70;99.90;;;;;;2611994;47;20407;-76
2021/12/06 02:12:28;;;;;;;21.53;16.67;;;3.70;99.90;;;;;;2614249;47;20499;-76
2021/12/06 02:15:06;;;;;;;17.70;15.87;;;3.20;99.90;;;;;;2612855;39;20854;-78
2021/12/06 02:17:41;;;;;;;17.23;14.70;;;3.50;99.90;;;;;;2613693;54;20400;-77
2021/12/06 02:20:22;;;;;;;17.40;15.73;;;3.50;99.90;;;;;;2614219;54;20398;-75
2021/12/06 02:22:48;;;;;;;19.00;17.23;;;3.40;99.90;;;;;;2611168;47;20494;-76
2021/12/06 02:25:18;;;;;;;19.57;16.67;;;3.30;99.90;;;;;;2613343;47;20433;-77
2021/12/06 02:27:46;;;;;;;17.90;16.20;;;2.80;99.90;;;;;;2613382;47;20162;-77
2021/12/06 02:30:14;;;;;;;17.53;16.00;;;2.70;99.90;;;;;;2613562;47;20458;-75
2021/12/06 02:32:40;;;;;;;18.33;16.60;;;2.60;99.90;;;;;;2612608;54;20409;-77
2021/12/06 02:35:13;;;;;;;17.50;16.00;;;2.40;99.90;;;;;;2613328;47;20458;-75
2021/12/06 02:37:39;;;;;;;19.40;17.17;;;2.50;99.90;;;;;;2613717;54;20404;-74
2021/12/06 02:40:18;;;;;;;18.07;16.47;;;2.50;99.90;;;;;;2614300;51;20395;-76
2021/12/06 02:42:46;;;;;;;19.47;17.83;;;2.60;99.90;;;;;;2613153;47;20415;-77
2021/12/06 02:45:15;;;;;;;19.03;17.13;;;2.60;99.90;;;;;;2613810;54;20544;-76
2021/12/06 02:47:41;;;;;;;18.47;16.57;;;2.90;99.90;;;;;;2613342;54;20391;-77
2021/12/06 02:50:10;;;;;;;17.10;15.50;;;3.30;99.90;;;;;;2614391;54;20403;-76
2021/12/06 02:52:37;;;;;;;18.60;16.77;;;3.30;99.90;;;;;;2614402;47;20415;-75
2021/12/06 02:55:21;;;;;;;17.97;15.67;;;3.50;99.90;;;;;;2615319;51;20843;-76
2021/12/06 02:57:53;;;;;;;18.80;16.50;;;3.60;99.90;;;;;;2614499;47;20442;-77
2021/12/06 03:00:21;;;;;;;18.40;16.47;;;3.00;99.90;;;;;;2614958;47;20399;-76
2021/12/06 03:02:47;;;;;;;19.07;16.77;;;2.30;99.90;;;;;;2614177;39;20783;-76
2021/12/06 03:05:13;;;;;;;18.07;16.27;;;2.70;99.90;;;;;;2616633;47;20459;-78
2021/12/06 03:07:39;;;;;;;17.03;15.43;;;2.80;99.90;;;;;;2614822;47;20238;-78
2021/12/06 03:10:07;;;;;;;18.30;16.47;;;2.80;99.90;;;;;;2612566;54;20407;-76
2021/12/06 03:12:35;;;;;;;17.53;15.73;;;2.90;99.90;;;;;;2614666;54;20415;-77
2021/12/06 03:15:04;;;;;;;17.17;15.37;;;3.00;99.90;;;;;;2614605;54;20426;-77
2021/12/06 03:17:32;;;;;;;19.73;15.80;;;3.20;99.90;;;;;;2616013;39;20811;-76
2021/12/06 03:20:00;;;;;;;17.10;15.40;;;3.30;99.90;;;;;;2615271;54;20418;-75
2021/12/06 03:22:31;;;;;;;17.63;15.93;;;3.40;99.90;;;;;;2614063;47;20406;-76
2021/12/06 03:24:57;;;;;;;17.07;15.43;;;3.10;99.90;;;;;;2614930;47;20403;-76
2021/12/06 03:27:23;;;;;;;18.40;16.50;;;3.10;99.90;;;;;;2615628;51;20414;-77
2021/12/06 03:29:51;;;;;;;16.23;14.60;;;2.70;99.90;;;;;;2612901;54;20983;-76
2021/12/06 03:32:19;;;;;;;17.60;15.93;;;2.90;99.90;;;;;;2615121;47;20437;-76
2021/12/06 03:34:45;;;;;;;16.33;14.53;;;2.90;99.90;;;;;;2614824;47;20507;-76
2021/12/06 03:37:12;;;;;;;16.60;15.00;;;2.70;99.90;;;;;;2612654;54;20395;-77
2021/12/06 03:39:46;;;;;;;18.70;15.27;;;2.80;99.90;;;;;;2614276;47;20427;-76
2021/12/06 03:42:20;;;;;;;17.53;15.73;;;3.00;99.90;;;;;;2614141;47;20419;-77
2021/12/06 03:44:47;;;;;;;15.80;14.03;;;3.10;99.90;;;;;;2611101;39;20905;-75
2021/12/06 03:47:17;;;;;;;16.57;14.67;;;2.60;99.90;;;;;;2611569;47;20431;-75
2021/12/06 03:49:44;;;;;;;16.80;14.90;;;2.70;99.90;;;;;;2613726;54;20415;-75
2021/12/06 03:52:13;;;;;;;18.40;15.20;;;2.90;99.90;;;;;;2614560;47;20990;-75
2021/12/06 03:54:43;;;;;;;16.37;14.57;;;3.00;99.90;;;;;;2614690;39;20732;-77
2021/12/06 03:57:10;;;;;;;16.77;15.17;;;3.00;99.90;;;;;;2614014;54;20415;-76
2021/12/06 03:59:36;;;;;;;22.80;16.50;;;2.80;99.90;;;;;;2614696;47;20403;-75
2021/12/06 04:02:02;;;;;;;20.87;16.07;;;3.00;99.90;;;;;;2614738;54;20466;-75
2021/12/06 04:04:29;;;;;;;18.33;15.83;;;3.00;99.90;;;;;;2615611;39;20834;-76
2021/12/06 04:06:56;;;;;;;19.83;16.07;;;3.10;99.90;;;;;;2614855;51;20459;-74
2021/12/06 04:09:23;;;;;;;18.53;15.23;;;3.30;99.90;;;;;;2614741;54;20387;-78
2021/12/06 04:11:50;;;;;;;17.67;15.23;;;3.20;99.90;;;;;;2615364;39;20843;-77
2021/12/06 04:14:17;;;;;;;17.80;15.87;;;3.40;99.90;;;;;;2612415;47;20413;-77
2021/12/06 04:16:43;;;;;;;20.43;16.40;;;3.40;99.90;;;;;;2611403;47;20983;-75
2021/12/06 04:19:10;;;;;;;19.57;17.30;;;3.30;99.90;;;;;;2614230;39;20801;-78
2021/12/06 04:21:40;;;;;;;35.03;18.63;;;3.10;99.90;;;;;;2615221;47;20400;-76
2021/12/06 04:24:07;;;;;;;46.47;20.70;;;3.10;99.90;;;;;;2614777;54;20393;-76
2021/12/06 04:26:33;;;;;;;49.17;21.80;;;3.40;99.90;;;;;;2614950;47;20427;-76
2021/12/06 04:29:01;;;;;;;44.50;20.67;;;3.50;99.90;;;;;;2614078;47;20407;-77
2021/12/06 04:31:37;;;;;;;34.07;22.10;;;3.60;99.90;;;;;;2614113;39;20817;-76
2021/12/06 04:34:05;;;;;;;40.60;22.57;;;3.50;99.90;;;;;;2613524;47;20462;-76
2021/12/06 04:36:31;;;;;;;48.67;21.23;;;3.60;99.90;;;;;;2615511;47;20407;-75
2021/12/06 04:38:57;;;;;;;68.67;25.20;;;3.90;99.90;;;;;;2614575;47;20407;-76
2021/12/06 04:41:23;;;;;;;41.87;23.20;;;3.20;99.90;;;;;;2615794;54;20402;-77
2021/12/06 04:43:50;;;;;;;82.30;27.13;;;2.90;99.90;;;;;;2612052;54;20414;-75
2021/12/06 04:46:16;;;;;;;78.93;23.27;;;3.60;99.90;;;;;;2614801;47;20434;-75
2021/12/06 04:48:42;;;;;;;55.93;24.30;;;3.60;99.90;;;;;;2614283;54;20404;-75
2021/12/06 04:51:09;;;;;;;72.00;25.80;;;3.60;99.90;;;;;;2615890;54;20975;-75
2021/12/06 04:53:37;;;;;;;73.73;25.50;;;3.90;99.90;;;;;;2612787;51;20411;-78
2021/12/06 04:56:16;;;;;;;47.67;22.30;;;3.80;99.90;;;;;;2615675;39;20800;-75
2021/12/06 04:58:58;;;;;;;44.03;20.70;;;2.40;99.90;;;;;;2613029;46;21078;-75
2021/12/06 05:01:29;;;;;;;26.13;18.57;;;2.10;99.90;;;;;;2613026;47;20435;-76
2021/12/06 05:04:03;;;;;;;34.90;18.80;;;1.60;99.90;;;;;;2612911;47;20444;-76
2021/12/06 05:06:33;;;;;;;36.93;19.87;;;2.30;99.90;;;;;;2615069;54;20416;-76
2021/12/06 05:09:06;;;;;;;48.67;19.33;;;2.50;99.90;;;;;;2615004;47;20419;-76
2021/12/06 05:11:32;;;;;;;35.80;16.07;;;2.40;99.90;;;;;;2614939;39;20815;-77
2021/12/06 05:14:02;;;;;;;47.33;19.60;;;2.30;99.90;;;;;;2614736;54;21007;-76
2021/12/06 05:16:30;;;;;;;75.37;20.43;;;2.50;99.90;;;;;;2613295;47;20395;-77
2021/12/06 05:18:56;;;;;;;43.13;20.83;;;2.60;99.90;;;;;;2614665;47;20402;-76
2021/12/06 05:21:22;;;;;;;34.23;17.70;;;2.90;99.90;;;;;;2615593;39;20874;-76
2021/12/06 05:23:49;;;;;;;30.67;17.60;;;3.00;99.90;;;;;;2613595;47;20253;-76
2021/12/06 05:26:16;;;;;;;25.93;17.37;;;3.20;99.90;;;;;;2615456;47;20491;-75
2021/12/06 05:28:44;;;;;;;39.43;21.00;;;3.40;99.90;;;;;;2611922;54;21085;-76
2021/12/06 05:31:15;;;;;;;50.40;19.33;;;3.30;99.90;;;;;;2614476;54;20504;-76
2021/12/06 05:33:44;;;;;;;70.23;21.13;;;3.40;99.90;;;;;;2612857;47;20415;-76
2021/12/06 05:36:10;;;;;;;59.83;20.37;;;3.30;99.90;;;;;;2615923;47;20387;-76
2021/12/06 05:38:38;;;;;;;61.37;18.30;;;3.30;99.90;;;;;;2614473;47;20459;-76
2021/12/06 05:41:04;;;;;;;39.53;15.93;;;3.30;99.90;;;;;;2615121;46;20430;-78
2021/12/06 05:43:30;;;;;;;33.63;18.47;;;2.60;99.90;;;;;;2614395;54;20910;-76
2021/12/06 05:45:56;;;;;;;37.00;18.00;;;2.70;99.90;;;;;;2614930;54;20976;-77
2021/12/06 05:48:22;;;;;;;30.03;17.93;;;2.80;99.90;;;;;;2614832;47;20427;-77
2021/12/06 05:50:48;;;;;;;21.30;14.57;;;2.70;99.90;;;;;;2614784;47;20442;-77
2021/12/06 05:53:15;;;;;;;20.63;15.23;;;2.60;99.90;;;;;;2613535;54;20154;-77
2021/12/06 05:55:42;;;;;;;23.70;16.10;;;2.10;99.90;;;;;;2616156;54;20400;-76
2021/12/06 05:58:10;;;;;;;17.87;13.73;;;1.80;99.90;;;;;;2614645;54;20398;-76
2021/12/06 06:00:37;;;;;;;22.87;15.67;;;2.00;99.90;;;;;;2614346;47;20404;-77
2021/12/06 06:03:05;;;;;;;21.87;15.83;;;2.20;99.90;;;;;;2614979;54;20455;-78
2021/12/06 06:05:33;;;;;;;16.77;14.80;;;2.20;99.90;;;;;;2614988;54;20395;-78
2021/12/06 06:07:59;;;;;;;20.50;16.23;;;2.20;99.90;;;;;;2614069;47;20427;-77
2021/12/06 06:10:25;;;;;;;19.73;15.17;;;1.90;99.90;;;;;;2616069;54;22259;-77
2021/12/06 06:12:51;;;;;;;20.73;14.77;;;1.60;99.90;;;;;;2614327;47;20430;-77
2021/12/06 06:15:17;;;;;;;23.77;14.80;;;1.60;99.90;;;;;;2615847;54;20748;-77
2021/12/06 06:17:44;;;;;;;19.30;15.10;;;1.60;99.90;;;;;;2613637;47;20170;-77
2021/12/06 06:20:23;;;;;;;20.13;15.50;;;1.70;99.90;;;;;;2615897;47;20930;-76
2021/12/06 06:22:49;;;;;;;17.77;14.07;;;1.60;99.90;;;;;;2612337;47;20431;-76
2021/12/06 06:25:15;;;;;;;22.37;13.87;;;1.40;99.90;;;;;;2617338;39;20803;-77
2021/12/06 06:27:42;;;;;;;18.17;14.03;;;1.30;99.90;;;;;;2616318;54;20389;-78
2021/12/06 06:30:09;;;;;;;23.90;15.67;;;1.50;99.90;;;;;;2615578;47;21075;-76
2021/12/06 06:32:34;;;;;;;21.17;15.83;;;1.90;99.90;;;;;;2614877;31;20827;-76
2021/12/06 06:35:01;;;;;;;22.10;15.63;;;2.00;99.90;;;;;;2615640;54;20422;-77
2021/12/06 06:37:27;;;;;;;19.10;14.90;;;1.90;99.90;;;;;;2614721;47;20702;-77
2021/12/06 06:39:52;;;;;;;20.63;16.33;;;2.10;99.90;;;;;;2614771;47;20827;-77
2021/12/06 06:42:23;;;;;;;19.73;15.53;;;2.10;99.90;;;;;;2615271;47;20297;-77
2021/12/06 06:44:50;;;;;;;18.47;14.97;;;1.70;99.90;;;;;;2616366;54;20185;-76
2021/12/06 06:47:17;;;;;;;17.83;15.67;;;1.50;99.90;;;;;;2617228;47;20442;-77
2021/12/06 06:49:43;;;;;;;21.70;17.33;;;1.00;99.90;;;;;;2616586;54;20429;-76
2021/12/06 06:52:08;;;;;;;18.23;15.83;;;1.10;99.90;;;;;;2616545;47;20499;-75
2021/12/06 06:54:34;;;;;;;20.63;15.97;;;1.50;99.90;;;;;;2616202;39;20905;-75
2021/12/06 06:57:00;;;;;;;25.23;18.63;;;1.50;99.90;;;;;;2615385;54;20159;-76
2021/12/06 06:59:26;;;;;;;23.93;17.20;;;1.60;99.90;;;;;;2614632;54;20169;-76
2021/12/06 07:01:53;;;;;;;20.73;16.23;;;1.20;99.90;;;;;;2614411;54;20198;-76
2021/12/06 07:04:19;;;;;;;24.57;16.20;;;0.80;99.90;;;;;;2613674;54;20294;-76
2021/12/06 07:06:45;;;;;;;20.27;15.53;;;0.70;99.90;;;;;;2616191;54;21004;-76
2021/12/06 07:09:11;;;;;;;19.37;15.47;;;1.00;99.90;;;;;;2616080;54;20431;-77
2021/12/06 07:11:37;;;;;;;18.57;15.20;;;1.50;99.90;;;;;;2615859;47;20435;-75
2021/12/06 07:14:03;;;;;;;23.27;16.87;;;1.70;99.90;;;;;;2616115;54;20394;-75
2021/12/06 07:16:29;;;;;;;20.13;18.00;;;2.00;99.90;;;;;;2616114;54;20168;-76
2021/12/06 07:18:56;;;;;;;24.50;19.80;;;2.00;99.90;;;;;;2615432;54;20402;-76
2021/12/06 07:21:23;;;;;;;62.43;27.20;;;1.00;99.90;;;;;;2614863;54;20390;-75
2021/12/06 07:23:49;;;;;;;89.13;32.07;;;0.80;99.90;;;;;;2614685;54;20948;-75
2021/12/06 07:26:17;;;;;;;93.20;34.07;;;0.90;99.90;;;;;;2615839;54;21006;-76
2021/12/06 07:28:45;;;;;;;116.30;32.73;;;1.30;99.90;;;;;;2615826;54;20424;-75
2021/12/06 07:31:14;;;;;;;71.30;29.20;;;1.80;99.90;;;;;;2614417;51;21027;-76
2021/12/06 07:33:41;;;;;;;51.20;27.13;;;2.40;99.90;;;;;;2615747;54;20418;-75
2021/12/06 07:36:08;;;;;;;75.27;30.07;;;2.50;99.90;;;;;;2614746;54;20919;-76
2021/12/06 07:38:35;;;;;;;76.80;27.60;;;2.90;99.90;;;;;;2616116;54;20532;-75
2021/12/06 07:41:02;;;;;;;62.83;28.70;;;2.90;99.90;;;;;;2616617;54;20424;-75
2021/12/06 07:43:29;;;;;;;67.50;28.00;;;3.00;99.90;;;;;;2615332;39;20843;-74
2021/12/06 07:45:56;;;;;;;58.83;31.73;;;2.70;99.90;;;;;;2615769;47;21027;-75
2021/12/06 07:48:22;;;;;;;82.43;32.77;;;2.90;99.90;;;;;;2614404;47;20415;-75
2021/12/06 07:50:48;;;;;;;64.77;31.70;;;2.80;99.90;;;;;;2614269;54;20386;-74
2021/12/06 07:53:14;;;;;;;92.60;32.13;;;2.70;99.90;;;;;;2614418;54;20539;-77
2021/12/06 07:55:40;;;;;;;111.93;32.60;;;2.50;99.90;;;;;;2616086;31;20665;-75
2021/12/06 07:58:08;;;;;;;114.80;34.43;;;2.50;99.90;;;;;;2615381;54;20422;-76
2021/12/06 08:00:44;;;;;;;127.87;35.40;;;3.00;99.90;;;;;;2616328;39;20811;-75
2021/12/06 08:03:12;;;;;;;116.37;31.70;;;3.10;99.90;;;;;;2615647;54;20403;-75
2021/12/06 08:05:40;;;;;;;112.23;35.27;;;2.80;99.90;;;;;;2616056;39;20790;-76
2021/12/06 08:08:12;;;;;;;138.47;35.13;;;2.60;99.90;;;;;;2615234;54;20407;-75
2021/12/06 08:10:47;;;;;;;137.77;39.67;;;3.10;99.90;;;;;;2615593;54;20396;-75
2021/12/06 08:13:16;;;;;;;114.03;33.13;;;3.00;99.90;;;;;;2616581;39;21274;-74
2021/12/06 08:15:43;;;;;;;109.87;34.77;;;2.80;99.90;;;;;;2616500;39;20479;-75
2021/12/06 08:18:09;;;;;;;124.40;36.83;;;2.70;99.90;;;;;;2614476;54;20412;-75
2021/12/06 08:20:36;;;;;;;122.30;34.97;;;2.80;99.90;;;;;;2615204;47;20403;-73
2021/12/06 08:23:02;;;;;;;116.20;36.43;;;3.00;99.90;;;;;;2615004;54;20431;-75
2021/12/06 08:25:29;;;;;;;88.30;33.83;;;2.90;99.90;;;;;;2614988;47;20527;-75
2021/12/06 08:27:55;;;;;;;91.47;33.50;;;3.50;99.90;;;;;;2614694;47;20398;-75
2021/12/06 08:30:22;;;;;;;54.37;28.33;;;3.80;99.90;;;;;;2615066;54;21037;-75
2021/12/06 08:32:54;;;;;;;80.27;32.70;;;3.80;99.90;;;;;;2612646;54;20435;-75
2021/12/06 08:35:20;;;;;;;87.53;35.20;;;3.70;99.90;;;;;;2611669;39;20827;-74
2021/12/06 08:37:47;;;;;;;106.03;35.20;;;3.80;99.90;;;;;;2611883;47;20465;-74
2021/12/06 08:40:15;;;;;;;54.90;31.60;;;4.20;99.90;;;;;;2610837;54;20451;-78
2021/12/06 08:42:42;;;;;;;53.40;32.03;;;4.10;99.90;;;;;;2611612;54;20410;-78
2021/12/06 08:45:10;;;;;;;62.43;31.57;;;4.10;99.90;;;;;;2611974;47;20449;-74
2021/12/06 08:47:37;;;;;;;69.50;30.57;;;4.60;99.90;;;;;;2610243;54;20547;-74
2021/12/06 08:50:05;;;;;;;70.27;32.70;;;4.70;99.90;;;;;;2614706;46;20423;-75
2021/12/06 08:52:31;;;;;;;83.80;31.27;;;4.70;99.90;;;;;;2615351;54;20507;-74
2021/12/06 08:54:57;;;;;;;73.73;30.60;;;4.50;99.90;;;;;;2615328;47;20441;-74
2021/12/06 08:57:22;;;;;;;60.50;29.63;;;4.70;99.90;;;;;;2613978;54;21259;-74
2021/12/06 08:59:49;;;;;;;63.03;28.80;;;4.70;99.90;;;;;;2612516;54;20419;-74
2021/12/06 09:02:15;;;;;;;83.40;28.70;;;5.20;99.90;;;;;;2612569;47;20154;-76
2021/12/06 09:04:43;;;;;;;85.83;30.80;;;5.50;99.90;;;;;;2610952;54;21076;-76
2021/12/06 09:07:12;;;;;;;95.93;33.67;;;5.40;99.90;;;;;;2612751;54;20158;-74
2021/12/06 09:09:46;;;;;;;80.30;29.03;;;5.60;99.90;;;;;;2612661;54;21053;-74
2021/12/06 09:12:19;;;;;;;85.73;32.90;;;5.70;99.90;;;;;;2613802;39;21039;-75
2021/12/06 09:14:46;;;;;;;107.13;33.00;;;5.20;99.90;;;;;;2612574;54;20984;-74
2021/12/06 09:17:13;;;;;;;73.63;31.50;;;4.20;99.90;;;;;;2611939;54;20408;-74
2021/12/06 09:19:42;;;;;;;112.23;34.60;;;3.90;99.90;;;;;;2610799;47;20439;-74
2021/12/06 09:22:09;;;;;;;121.90;35.30;;;3.90;99.90;;;;;;2611765;54;20379;-75
2021/12/06 09:24:35;;;;;;;130.03;37.57;;;3.80;99.90;;;;;;2611095;54;20560;-74
2021/12/06 09:27:01;;;;;;;225.23;42.10;;;4.00;99.90;;;;;;2612402;54;20394;-77
2021/12/06 09:29:29;;;;;;;163.43;36.63;;;3.60;99.90;;;;;;2611586;54;20403;-74
2021/12/06 09:31:59;;;;;;;128.37;36.07;;;3.70;99.90;;;;;;2612310;54;20391;-73
2021/12/06 09:34:27;;;;;;;126.07;36.43;;;3.90;99.90;;;;;;2611654;54;20490;-73
2021/12/06 09:36:54;;;;;;;84.17;31.77;;;4.40;99.90;;;;;;2612689;54;20419;-75
2021/12/06 09:39:20;;;;;;;146.70;35.37;;;4.60;99.90;;;;;;2612259;54;20424;-75
2021/12/06 09:41:48;;;;;;;104.07;31.50;;;4.40;99.90;;;;;;2611994;54;20499;-78
2021/12/06 09:44:14;;;;;;;60.17;27.00;;;4.50;99.90;;;;;;2612500;51;20464;-73
2021/12/06 09:46:42;;;;;;;128.53;31.73;;;4.90;99.90;;;;;;2611604;54;20435;-75
2021/12/06 09:49:10;;;;;;;69.30;24.90;;;4.80;99.90;;;;;;2611388;54;20403;-75
2021/12/06 09:51:38;;;;;;;61.20;25.03;;;4.30;99.90;;;;;;2611291;54;20415;-73
2021/12/06 09:54:04;;;;;;;97.73;29.57;;;3.70;99.90;;;;;;2611220;54;20412;-77
2021/12/06 09:56:36;;;;;;;89.27;31.20;;;4.10;99.90;;;;;;2611913;54;20451;-74
2021/12/06 09:59:06;;;;;;;89.83;29.00;;;4.50;99.90;;;;;;2611557;39;21055;-73
2021/12/06 10:01:36;;;;;;;77.57;26.60;;;4.50;99.90;;;;;;2611791;39;20863;-74
2021/12/06 10:04:06;;;;;;;90.87;26.27;;;4.60;99.90;;;;;;2608659;47;21007;-73
2021/12/06 10:06:32;;;;;;;88.20;29.20;;;4.90;99.90;;;;;;2610191;39;21257;-75
2021/12/06 10:09:00;;;;;;;92.40;31.37;;;5.40;99.90;;;;;;2609207;54;20409;-73
2021/12/06 10:11:27;;;;;;;105.70;32.03;;;5.10;99.90;;;;;;2610791;54;20423;-77
2021/12/06 10:13:55;;;;;;;73.40;27.57;;;5.30;99.90;;;;;;2610913;47;20892;-75
2021/12/06 10:16:23;;;;;;;110.27;31.33;;;5.50;99.90;;;;;;2612567;47;20424;-74
2021/12/06 10:18:50;;;;;;;85.10;29.70;;;5.80;99.90;;;;;;2612376;54;20523;-75
2021/12/06 10:21:17;;;;;;;82.80;28.63;;;6.10;99.90;;;;;;2611762;54;22189;-74
2021/12/06 10:23:43;;;;;;;69.77;27.47;;;6.10;99.90;;;;;;2612805;54;20499;-75
2021/12/06 10:26:12;;;;;;;38.90;24.83;;;6.40;99.90;;;;;;2611559;54;20522;-74
2021/12/06 10:28:41;;;;;;;94.17;30.63;;;6.30;99.90;;;;;;2611392;39;20901;-76
2021/12/06 10:31:11;;;;;;;68.50;27.70;;;6.70;99.90;;;;;;2612083;54;20399;-73
2021/12/06 10:33:42;;;;;;;75.93;27.90;;;6.00;99.90;;;;;;2612797;54;20403;-76
2021/12/06 10:36:11;;;;;;;90.63;26.80;;;4.70;99.90;;;;;;2612485;54;20415;-74
2021/12/06 10:38:40;;;;;;;71.77;26.37;;;5.20;99.90;;;;;;2612873;54;20531;-77
2021/12/06 10:41:17;;;;;;;75.83;29.77;;;5.50;99.90;;;;;;2609728;47;20543;-73
2021/12/06 10:44:11;;;;;;;53.87;26.53;;;5.60;99.90;;;;;;2611694;39;20840;-73
2021/12/06 10:46:41;;;;;;;36.30;24.60;;;5.60;99.90;;;;;;2612665;54;20426;-74
2021/12/06 10:49:11;;;;;;;37.53;23.57;;;6.40;99.90;;;;;;2610907;54;21061;-75
2021/12/06 10:51:37;;;;;;;46.00;27.53;;;6.50;99.90;;;;;;2611732;47;20467;-75
2021/12/06 10:54:08;;;;;;;55.37;26.67;;;6.40;99.90;;;;;;2611827;54;21201;-75
2021/12/06 10:56:45;;;;;;;43.33;26.17;;;6.10;99.90;;;;;;2612436;54;20727;-75
2021/12/06 10:59:18;;;;;;;39.80;25.90;;;7.00;99.90;;;;;;2611556;54;20939;-76
2021/12/06 11:01:46;;;;;;;37.80;25.37;;;7.80;99.90;;;;;;2611442;47;20419;-75
2021/12/06 11:04:16;;;;;;;46.73;28.77;;;8.50;99.90;;;;;;2611270;54;20459;-74
2021/12/06 11:06:53;;;;;;;49.07;31.03;;;8.50;99.90;;;;;;2609726;47;20407;-74
2021/12/06 11:09:26;;;;;;;52.07;28.90;;;9.00;99.90;;;;;;2613079;39;20856;-76
2021/12/06 11:11:55;;;;;;;50.97;28.90;;;9.80;99.90;;;;;;2612928;39;21364;-75
2021/12/06 11:14:33;;;;;;;59.30;30.67;;;10.70;99.90;;;;;;2612490;54;20987;-76
2021/12/06 11:17:06;;;;;;;40.33;27.70;;;11.10;99.90;;;;;;2610922;54;20423;-74
2021/12/06 11:19:32;;;;;;;44.37;27.90;;;10.20;99.90;;;;;;2611508;46;20428;-74
2021/12/06 11:22:06;;;;;;;43.37;27.30;;;9.70;99.90;;;;;;2612154;54;20407;-74
2021/12/06 11:24:39;;;;;;;42.23;25.63;;;10.20;99.90;;;;;;2611996;54;20497;-74
2021/12/06 11:27:17;;;;;;;40.23;26.87;;;10.90;99.90;;;;;;2612189;46;20431;-76
2021/12/06 11:29:47;;;;;;;38.53;26.30;;;11.10;94.50;;;;;;2627935;36;21011;-75
2021/12/06 11:32:14;;;;;;;38.10;28.97;;;10.30;96.40;;;;;;2611324;51;20430;-73
2021/12/06 11:34:45;;;;;;;46.47;30.60;;;9.50;99.90;;;;;;2611445;47;20432;-75
2021/12/06 11:37:23;;;;;;;41.83;29.07;;;8.50;99.90;;;;;;2612429;47;20411;-75
2021/12/06 11:40:00;;;;;;;46.17;32.37;;;8.30;99.90;;;;;;2612733;39;20939;-73
2021/12/06 11:42:28;;;;;;;44.73;30.70;;;8.00;99.90;;;;;;2612001;39;20789;-74
2021/12/06 11:44:54;;;;;;;45.40;31.30;;;7.70;99.90;;;;;;2613280;54;20407;-74
2021/12/06 11:47:21;;;;;;;47.90;30.50;;;8.00;99.90;;;;;;2612288;47;20424;-74
2021/12/06 11:49:53;;;;;;;40.73;29.40;;;8.60;99.90;;;;;;2611615;54;20170;-75
2021/12/06 11:52:29;;;;;;;38.63;27.63;;;9.20;99.90;;;;;;2613368;54;20419;-74
2021/12/06 11:55:06;;;;;;;42.67;27.63;;;10.40;99.90;;;;;;2613331;47;20969;-73
2021/12/06 11:57:42;;;;;;;35.27;26.03;;;12.20;97.10;;;;;;2612655;54;22066;-74
2021/12/06 12:00:15;;;;;;;36.37;26.50;;;14.70;83.40;;;;;;2612254;54;20471;-77
2021/12/06 12:03:00;;;;;;;29.07;22.43;;;15.90;68.20;;;;;;2611554;39;20806;-75
2021/12/06 12:05:30;;;;;;;26.10;22.70;;;17.20;61.50;;;;;;2611595;47;21024;-74
2021/12/06 12:08:15;;;;;;;25.57;19.97;;;18.30;58.90;;;;;;2612060;54;20448;-77
2021/12/06 12:10:50;;;;;;;26.17;19.00;;;19.40;53.40;;;;;;2612271;54;20414;-74
2021/12/06 12:13:27;;;;;;;25.50;18.83;;;18.90;54.90;;;;;;2611332;54;20414;-75
2021/12/06 12:15:57;;;;;;;28.13;23.13;;;20.10;48.10;;;;;;2612500;54;20526;-73
2021/12/06 12:18:24;;;;;;;28.70;23.50;;;18.00;56.50;;;;;;2612066;54;20415;-74
2021/12/06 12:20:53;;;;;;;27.97;22.57;;;16.70;59.20;;;;;;2611298;47;20885;-75
2021/12/06 12:23:20;;;;;;;26.83;23.23;;;14.70;71.00;;;;;;2611998;39;20915;-75
2021/12/06 12:25:55;;;;;;;45.30;37.50;;;12.90;81.80;;;;;;2610764;54;20410;-75
2021/12/06 12:28:30;;;;;;;32.77;23.80;;;11.60;94.10;;;;;;2611528;54;20415;-75
2021/12/06 12:30:59;;;;;;;56.77;39.30;;;10.50;99.90;;;;;;2611170;54;21180;-75
2021/12/06 12:33:26;;;;;;;32.87;25.60;;;9.00;99.90;;;;;;2626773;36;21034;-74
2021/12/06 12:35:57;;;;;;;32.40;25.87;;;9.40;99.90;;;;;;2610582;54;20416;-74
2021/12/06 12:38:29;;;;;;;39.10;27.87;;;10.20;99.90;;;;;;2611902;54;20465;-74
2021/12/06 12:40:59;;;;;;;33.80;26.30;;;10.30;99.90;;;;;;2611973;39;20939;-75
2021/12/06 12:43:39;;;;;;;35.07;26.10;;;9.50;99.90;;;;;;2612428;54;20410;-75
2021/12/06 12:46:14;;;;;;;43.03;30.70;;;9.40;99.90;;;;;;2612380;54;20404;-78
2021/12/06 12:48:51;;;;;;;46.90;29.90;;;10.00;99.90;;;;;;2610719;54;20450;-77
2021/12/06 12:51:46;;;;;;;30.03;24.30;;;11.30;99.90;;;;;;2612539;54;20428;-75
2021/12/06 12:54:17;;;;;;;31.57;26.13;;;12.30;94.00;;;;;;2610581;46;20461;-74
2021/12/06 12:57:05;;;;;;;41.07;26.73;;;11.90;94.60;;;;;;2610176;54;20809;-75